sensor_id;sensor_type;location;lat;lon;timestamp;pressure;altitude;pressure_sealevel;temperature
34023;BMP280;20673;48.980;8.138;2023-07-30T00:02:07;99620.19;;;19.47
34023;BMP280;20673;48.980;8.138;2023-07-30T00:04:33;99616.92;;;19.42
34023;BMP280;20673;48.980;8.138;2023-07-30T00:06:59;99612.64;;;19.42
34023;BMP280;20673;48.980;8.138;2023-07-30T00:09:25;99609.23;;;19.42
34023;BMP280;20673;48.980;8.138;2023-07-30T00:11:51;99610.25;;;19.40
34023;BMP280;20673;48.980;8.138;2023-07-30T00:14:17;99603.21;;;19.36
34023;BMP280;20673;48.980;8.138;2023-07-30T00:16:44;99600.72;;;19.33
34023;BMP280;20673;48.980;8.138;2023-07-30T00:19:10;99602.11;;;19.34
34023;BMP280;20673;48.980;8.138;2023-07-30T00:21:36;99601.01;;;19.38
34023;BMP280;20673;48.980;8.138;2023-07-30T00:24:02;99611.14;;;19.40
34023;BMP280;20673;48.980;8.138;2023-07-30T00:26:29;99608.53;;;19.36
34023;BMP280;20673;48.980;8.138;2023-07-30T00:28:55;99611.36;;;19.42
34023;BMP280;20673;48.980;8.138;2023-07-30T00:31:21;99612.12;;;19.37
34023;BMP280;20673;48.980;8.138;2023-07-30T00:33:47;99610.44;;;19.35
34023;BMP280;20673;48.980;8.138;2023-07-30T00:36:13;99606.23;;;19.35
34023;BMP280;20673;48.980;8.138;2023-07-30T00:38:40;99612.63;;;19.35
34023;BMP280;20673;48.980;8.138;2023-07-30T00:41:06;99615.85;;;19.35
34023;BMP280;20673;48.980;8.138;2023-07-30T00:43:32;99623.44;;;19.40
34023;BMP280;20673;48.980;8.138;2023-07-30T00:45:58;99627.70;;;19.41
34023;BMP280;20673;48.980;8.138;2023-07-30T00:48:24;99632.09;;;19.42
34023;BMP280;20673;48.980;8.138;2023-07-30T00:50:50;99635.29;;;19.42
34023;BMP280;20673;48.980;8.138;2023-07-30T00:53:19;99630.25;;;19.46
34023;BMP280;20673;48.980;8.138;2023-07-30T00:55:47;99632.03;;;19.46
34023;BMP280;20673;48.980;8.138;2023-07-30T00:58:13;99631.02;;;19.46
34023;BMP280;20673;48.980;8.138;2023-07-30T01:00:41;99632.76;;;19.47
34023;BMP280;20673;48.980;8.138;2023-07-30T01:03:07;99631.19;;;19.47
34023;BMP280;20673;48.980;8.138;2023-07-30T01:05:34;99634.62;;;19.48
34023;BMP280;20673;48.980;8.138;2023-07-30T01:08:00;99634.47;;;19.46
34023;BMP280;20673;48.980;8.138;2023-07-30T01:10:29;99632.11;;;19.47
34023;BMP280;20673;48.980;8.138;2023-07-30T01:12:56;99639.13;;;19.45
34023;BMP280;20673;48.980;8.138;2023-07-30T01:15:23;99643.01;;;19.45
34023;BMP280;20673;48.980;8.138;2023-07-30T01:17:49;99647.09;;;19.45
34023;BMP280;20673;48.980;8.138;2023-07-30T01:20:15;99654.26;;;19.42
34023;BMP280;20673;48.980;8.138;2023-07-30T01:22:41;99654.17;;;19.41
34023;BMP280;20673;48.980;8.138;2023-07-30T01:25:08;99657.54;;;19.41
34023;BMP280;20673;48.980;8.138;2023-07-30T01:27:40;99656.46;;;19.38
34023;BMP280;20673;48.980;8.138;2023-07-30T01:30:18;99657.92;;;19.40
34023;BMP280;20673;48.980;8.138;2023-07-30T01:32:49;99659.04;;;19.37
34023;BMP280;20673;48.980;8.138;2023-07-30T01:35:21;99660.89;;;19.35
34023;BMP280;20673;48.980;8.138;2023-07-30T01:37:51;99658.17;;;19.33
34023;BMP280;20673;48.980;8.138;2023-07-30T01:40:18;99668.17;;;19.31
34023;BMP280;20673;48.980;8.138;2023-07-30T01:42:44;99660.64;;;19.32
34023;BMP280;20673;48.980;8.138;2023-07-30T01:45:10;99665.72;;;19.31
34023;BMP280;20673;48.980;8.138;2023-07-30T01:47:36;99671.03;;;19.29
34023;BMP280;20673;48.980;8.138;2023-07-30T01:50:03;99670.06;;;19.27
34023;BMP280;20673;48.980;8.138;2023-07-30T01:52:29;99667.65;;;19.25
34023;BMP280;20673;48.980;8.138;2023-07-30T01:54:55;99671.35;;;19.21
34023;BMP280;20673;48.980;8.138;2023-07-30T01:57:22;99669.12;;;19.15
34023;BMP280;20673;48.980;8.138;2023-07-30T01:59:48;99671.54;;;19.15
34023;BMP280;20673;48.980;8.138;2023-07-30T02:02:14;99667.11;;;19.15
34023;BMP280;20673;48.980;8.138;2023-07-30T02:04:40;99659.97;;;19.13
34023;BMP280;20673;48.980;8.138;2023-07-30T02:07:06;99658.15;;;19.07
34023;BMP280;20673;48.980;8.138;2023-07-30T02:09:32;99660.36;;;19.04
34023;BMP280;20673;48.980;8.138;2023-07-30T02:11:58;99660.54;;;19.02
34023;BMP280;20673;48.980;8.138;2023-07-30T02:14:25;99660.81;;;19.00
34023;BMP280;20673;48.980;8.138;2023-07-30T02:16:51;99657.89;;;18.99
34023;BMP280;20673;48.980;8.138;2023-07-30T02:19:17;99655.17;;;18.98
34023;BMP280;20673;48.980;8.138;2023-07-30T02:21:43;99652.89;;;18.96
34023;BMP280;20673;48.980;8.138;2023-07-30T02:24:10;99657.79;;;18.99
34023;BMP280;20673;48.980;8.138;2023-07-30T02:26:38;99668.25;;;18.96
34023;BMP280;20673;48.980;8.138;2023-07-30T02:29:04;99669.18;;;19.00
34023;BMP280;20673;48.980;8.138;2023-07-30T02:31:31;99666.40;;;19.06
34023;BMP280;20673;48.980;8.138;2023-07-30T02:33:57;99659.58;;;19.03
34023;BMP280;20673;48.980;8.138;2023-07-30T02:36:24;99660.78;;;19.07
34023;BMP280;20673;48.980;8.138;2023-07-30T02:38:51;99663.31;;;19.05
34023;BMP280;20673;48.980;8.138;2023-07-30T02:41:17;99664.48;;;19.07
34023;BMP280;20673;48.980;8.138;2023-07-30T02:43:43;99670.90;;;19.11
34023;BMP280;20673;48.980;8.138;2023-07-30T02:46:09;99671.14;;;19.11
34023;BMP280;20673;48.980;8.138;2023-07-30T02:48:35;99669.90;;;19.11
34023;BMP280;20673;48.980;8.138;2023-07-30T02:51:02;99670.01;;;19.10
34023;BMP280;20673;48.980;8.138;2023-07-30T02:53:28;99670.64;;;19.12
34023;BMP280;20673;48.980;8.138;2023-07-30T02:55:55;99673.73;;;19.15
34023;BMP280;20673;48.980;8.138;2023-07-30T02:58:21;99667.78;;;19.17
34023;BMP280;20673;48.980;8.138;2023-07-30T03:00:47;99664.78;;;19.23
34023;BMP280;20673;48.980;8.138;2023-07-30T03:03:13;99671.18;;;19.23
34023;BMP280;20673;48.980;8.138;2023-07-30T03:05:44;99670.17;;;19.23
34023;BMP280;20673;48.980;8.138;2023-07-30T03:08:10;99672.75;;;19.24
34023;BMP280;20673;48.980;8.138;2023-07-30T03:10:36;99675.37;;;19.22
34023;BMP280;20673;48.980;8.138;2023-07-30T03:13:03;99680.83;;;19.23
34023;BMP280;20673;48.980;8.138;2023-07-30T03:15:29;99683.70;;;19.21
34023;BMP280;20673;48.980;8.138;2023-07-30T03:17:55;99688.12;;;19.19
34023;BMP280;20673;48.980;8.138;2023-07-30T03:20:21;99685.92;;;19.19
34023;BMP280;20673;48.980;8.138;2023-07-30T03:22:47;99684.42;;;19.21
34023;BMP280;20673;48.980;8.138;2023-07-30T03:25:13;99687.18;;;19.23
34023;BMP280;20673;48.980;8.138;2023-07-30T03:27:39;99688.75;;;19.23
34023;BMP280;20673;48.980;8.138;2023-07-30T03:30:06;99693.65;;;19.24
34023;BMP280;20673;48.980;8.138;2023-07-30T03:32:32;99689.89;;;19.24
34023;BMP280;20673;48.980;8.138;2023-07-30T03:34:58;99698.00;;;19.30
34023;BMP280;20673;48.980;8.138;2023-07-30T03:37:24;99699.09;;;19.26
34023;BMP280;20673;48.980;8.138;2023-07-30T03:39:50;99695.46;;;19.26
34023;BMP280;20673;48.980;8.138;2023-07-30T03:42:16;99696.14;;;19.26
34023;BMP280;20673;48.980;8.138;2023-07-30T03:44:43;99703.10;;;19.24
34023;BMP280;20673;48.980;8.138;2023-07-30T03:47:09;99711.80;;;19.26
34023;BMP280;20673;48.980;8.138;2023-07-30T03:49:35;99707.78;;;19.30
34023;BMP280;20673;48.980;8.138;2023-07-30T03:52:01;99705.36;;;19.29
34023;BMP280;20673;48.980;8.138;2023-07-30T03:54:27;99710.90;;;19.30
34023;BMP280;20673;48.980;8.138;2023-07-30T03:56:53;99716.00;;;19.27
34023;BMP280;20673;48.980;8.138;2023-07-30T03:59:19;99720.54;;;19.24
34023;BMP280;20673;48.980;8.138;2023-07-30T04:01:46;99718.45;;;19.22
34023;BMP280;20673;48.980;8.138;2023-07-30T04:04:12;99713.06;;;19.19
34023;BMP280;20673;48.980;8.138;2023-07-30T04:06:38;99709.51;;;19.15
34023;BMP280;20673;48.980;8.138;2023-07-30T04:09:04;99710.70;;;19.10
34023;BMP280;20673;48.980;8.138;2023-07-30T04:11:30;99716.00;;;19.10
34023;BMP280;20673;48.980;8.138;2023-07-30T04:13:57;99715.81;;;19.07
34023;BMP280;20673;48.980;8.138;2023-07-30T04:16:23;99720.61;;;19.02
34023;BMP280;20673;48.980;8.138;2023-07-30T04:18:49;99728.17;;;18.98
34023;BMP280;20673;48.980;8.138;2023-07-30T04:21:15;99732.33;;;19.00
34023;BMP280;20673;48.980;8.138;2023-07-30T04:23:41;99729.03;;;19.02
34023;BMP280;20673;48.980;8.138;2023-07-30T04:26:07;99731.75;;;19.04
34023;BMP280;20673;48.980;8.138;2023-07-30T04:28:33;99736.08;;;19.08
34023;BMP280;20673;48.980;8.138;2023-07-30T04:31:00;99733.84;;;19.10
34023;BMP280;20673;48.980;8.138;2023-07-30T04:33:26;99736.25;;;19.08
34023;BMP280;20673;48.980;8.138;2023-07-30T04:35:52;99738.63;;;19.11
34023;BMP280;20673;48.980;8.138;2023-07-30T04:38:18;99741.81;;;19.11
34023;BMP280;20673;48.980;8.138;2023-07-30T04:40:44;99745.70;;;19.11
34023;BMP280;20673;48.980;8.138;2023-07-30T04:43:10;99746.87;;;19.14
34023;BMP280;20673;48.980;8.138;2023-07-30T04:45:36;99748.13;;;19.15
34023;BMP280;20673;48.980;8.138;2023-07-30T04:48:03;99744.11;;;19.16
34023;BMP280;20673;48.980;8.138;2023-07-30T04:50:29;99750.90;;;19.20
34023;BMP280;20673;48.980;8.138;2023-07-30T04:52:55;99748.61;;;19.24
34023;BMP280;20673;48.980;8.138;2023-07-30T04:55:21;99748.52;;;19.27
34023;BMP280;20673;48.980;8.138;2023-07-30T04:57:48;99743.65;;;19.32
34023;BMP280;20673;48.980;8.138;2023-07-30T05:00:14;99755.11;;;19.32
34023;BMP280;20673;48.980;8.138;2023-07-30T05:02:40;99758.28;;;19.36
34023;BMP280;20673;48.980;8.138;2023-07-30T05:05:06;99751.50;;;19.39
34023;BMP280;20673;48.980;8.138;2023-07-30T05:07:33;99744.04;;;19.44
34023;BMP280;20673;48.980;8.138;2023-07-30T05:09:59;99743.89;;;19.46
34023;BMP280;20673;48.980;8.138;2023-07-30T05:12:25;99734.17;;;19.49
34023;BMP280;20673;48.980;8.138;2023-07-30T05:14:52;99727.05;;;19.53
34023;BMP280;20673;48.980;8.138;2023-07-30T05:17:18;99730.27;;;19.52
34023;BMP280;20673;48.980;8.138;2023-07-30T05:19:44;99738.64;;;19.53
34023;BMP280;20673;48.980;8.138;2023-07-30T05:22:10;99755.29;;;19.55
34023;BMP280;20673;48.980;8.138;2023-07-30T05:24:36;99761.23;;;19.57
34023;BMP280;20673;48.980;8.138;2023-07-30T05:27:03;99766.33;;;19.71
34023;BMP280;20673;48.980;8.138;2023-07-30T05:29:29;99771.10;;;19.93
34023;BMP280;20673;48.980;8.138;2023-07-30T05:31:55;99772.47;;;20.04
34023;BMP280;20673;48.980;8.138;2023-07-30T05:34:22;99774.35;;;20.11
34023;BMP280;20673;48.980;8.138;2023-07-30T05:36:48;99768.79;;;20.07
34023;BMP280;20673;48.980;8.138;2023-07-30T05:39:14;99756.61;;;20.22
34023;BMP280;20673;48.980;8.138;2023-07-30T05:41:40;99753.91;;;20.28
34023;BMP280;20673;48.980;8.138;2023-07-30T05:44:06;99748.92;;;20.34
34023;BMP280;20673;48.980;8.138;2023-07-30T05:46:32;99748.89;;;20.25
34023;BMP280;20673;48.980;8.138;2023-07-30T05:48:58;99746.65;;;20.29
34023;BMP280;20673;48.980;8.138;2023-07-30T05:51:24;99743.50;;;20.25
34023;BMP280;20673;48.980;8.138;2023-07-30T05:53:50;99743.33;;;20.18
34023;BMP280;20673;48.980;8.138;2023-07-30T05:56:16;99746.58;;;20.18
34023;BMP280;20673;48.980;8.138;2023-07-30T05:58:44;99758.03;;;20.04
34023;BMP280;20673;48.980;8.138;2023-07-30T06:01:11;99755.80;;;20.05
34023;BMP280;20673;48.980;8.138;2023-07-30T06:03:39;99765.79;;;20.02
34023;BMP280;20673;48.980;8.138;2023-07-30T06:06:05;99772.63;;;19.96
34023;BMP280;20673;48.980;8.138;2023-07-30T06:08:31;99779.04;;;19.91
34023;BMP280;20673;48.980;8.138;2023-07-30T06:11:02;99771.83;;;19.86
34023;BMP280;20673;48.980;8.138;2023-07-30T06:13:29;99776.41;;;19.75
34023;BMP280;20673;48.980;8.138;2023-07-30T06:15:55;99781.14;;;19.78
34023;BMP280;20673;48.980;8.138;2023-07-30T06:18:22;99780.29;;;19.76
34023;BMP280;20673;48.980;8.138;2023-07-30T06:20:48;99781.29;;;19.73
34023;BMP280;20673;48.980;8.138;2023-07-30T06:23:14;99781.57;;;19.73
34023;BMP280;20673;48.980;8.138;2023-07-30T06:25:40;99788.71;;;19.76
34023;BMP280;20673;48.980;8.138;2023-07-30T06:28:06;99787.90;;;19.80
34023;BMP280;20673;48.980;8.138;2023-07-30T06:30:32;99788.31;;;19.79
34023;BMP280;20673;48.980;8.138;2023-07-30T06:32:58;99790.83;;;19.79
34023;BMP280;20673;48.980;8.138;2023-07-30T06:35:25;99795.47;;;19.79
34023;BMP280;20673;48.980;8.138;2023-07-30T06:37:51;99792.65;;;19.79
34023;BMP280;20673;48.980;8.138;2023-07-30T06:40:17;99795.98;;;19.82
34023;BMP280;20673;48.980;8.138;2023-07-30T06:42:43;99798.29;;;19.82
34023;BMP280;20673;48.980;8.138;2023-07-30T06:45:09;99801.54;;;19.84
34023;BMP280;20673;48.980;8.138;2023-07-30T06:47:36;99809.43;;;19.85
34023;BMP280;20673;48.980;8.138;2023-07-30T06:50:03;99812.14;;;19.90
34023;BMP280;20673;48.980;8.138;2023-07-30T06:52:30;99814.05;;;19.92
34023;BMP280;20673;48.980;8.138;2023-07-30T06:54:56;99817.48;;;19.90
34023;BMP280;20673;48.980;8.138;2023-07-30T06:57:22;99819.18;;;19.94
34023;BMP280;20673;48.980;8.138;2023-07-30T06:59:48;99820.85;;;20.02
34023;BMP280;20673;48.980;8.138;2023-07-30T07:02:14;99830.61;;;20.16
34023;BMP280;20673;48.980;8.138;2023-07-30T07:04:40;99837.04;;;20.26
34023;BMP280;20673;48.980;8.138;2023-07-30T07:07:06;99837.11;;;20.32
34023;BMP280;20673;48.980;8.138;2023-07-30T07:09:32;99842.81;;;20.40
34023;BMP280;20673;48.980;8.138;2023-07-30T07:11:58;99850.22;;;20.47
34023;BMP280;20673;48.980;8.138;2023-07-30T07:14:25;99847.65;;;20.60
34023;BMP280;20673;48.980;8.138;2023-07-30T07:16:54;99844.47;;;20.80
34023;BMP280;20673;48.980;8.138;2023-07-30T07:19:22;99847.90;;;20.95
34023;BMP280;20673;48.980;8.138;2023-07-30T07:21:48;99852.90;;;21.07
34023;BMP280;20673;48.980;8.138;2023-07-30T07:24:17;99846.12;;;21.17
34023;BMP280;20673;48.980;8.138;2023-07-30T07:26:44;99854.58;;;21.28
34023;BMP280;20673;48.980;8.138;2023-07-30T07:29:10;99857.97;;;21.16
34023;BMP280;20673;48.980;8.138;2023-07-30T07:31:36;99861.17;;;21.27
34023;BMP280;20673;48.980;8.138;2023-07-30T07:34:06;99856.38;;;21.21
34023;BMP280;20673;48.980;8.138;2023-07-30T07:36:37;99857.86;;;21.31
34023;BMP280;20673;48.980;8.138;2023-07-30T07:39:08;99856.42;;;21.39
34023;BMP280;20673;48.980;8.138;2023-07-30T07:41:35;99851.03;;;21.52
34023;BMP280;20673;48.980;8.138;2023-07-30T07:44:03;99851.82;;;21.55
34023;BMP280;20673;48.980;8.138;2023-07-30T07:46:29;99862.30;;;21.52
34023;BMP280;20673;48.980;8.138;2023-07-30T07:48:56;99863.89;;;21.50
34023;BMP280;20673;48.980;8.138;2023-07-30T07:51:22;99868.76;;;21.47
34023;BMP280;20673;48.980;8.138;2023-07-30T07:53:48;99867.77;;;21.29
34023;BMP280;20673;48.980;8.138;2023-07-30T07:56:14;99867.04;;;21.49
34023;BMP280;20673;48.980;8.138;2023-07-30T07:58:40;99860.81;;;21.64
34023;BMP280;20673;48.980;8.138;2023-07-30T08:01:08;99854.14;;;21.94
34023;BMP280;20673;48.980;8.138;2023-07-30T08:03:35;99847.84;;;21.80
34023;BMP280;20673;48.980;8.138;2023-07-30T08:06:01;99857.11;;;21.78
34023;BMP280;20673;48.980;8.138;2023-07-30T08:08:27;99863.12;;;21.63
34023;BMP280;20673;48.980;8.138;2023-07-30T08:10:54;99867.47;;;21.79
34023;BMP280;20673;48.980;8.138;2023-07-30T08:13:20;99869.45;;;21.73
34023;BMP280;20673;48.980;8.138;2023-07-30T08:15:46;99867.54;;;21.87
34023;BMP280;20673;48.980;8.138;2023-07-30T08:18:12;99873.37;;;21.84
34023;BMP280;20673;48.980;8.138;2023-07-30T08:20:38;99879.15;;;21.92
34023;BMP280;20673;48.980;8.138;2023-07-30T08:23:04;99873.97;;;21.92
34023;BMP280;20673;48.980;8.138;2023-07-30T08:25:30;99872.33;;;21.80
34023;BMP280;20673;48.980;8.138;2023-07-30T08:27:56;99875.97;;;21.71
34023;BMP280;20673;48.980;8.138;2023-07-30T08:30:23;99875.60;;;21.75
34023;BMP280;20673;48.980;8.138;2023-07-30T08:32:49;99877.29;;;21.62
34023;BMP280;20673;48.980;8.138;2023-07-30T08:35:15;99875.87;;;21.76
34023;BMP280;20673;48.980;8.138;2023-07-30T08:37:41;99876.72;;;21.92
34023;BMP280;20673;48.980;8.138;2023-07-30T08:40:09;99858.11;;;21.97
34023;BMP280;20673;48.980;8.138;2023-07-30T08:42:36;99874.54;;;21.83
34023;BMP280;20673;48.980;8.138;2023-07-30T08:45:06;99878.50;;;21.87
34023;BMP280;20673;48.980;8.138;2023-07-30T08:47:35;99882.95;;;22.07
34023;BMP280;20673;48.980;8.138;2023-07-30T08:50:02;99883.66;;;22.53
34023;BMP280;20673;48.980;8.138;2023-07-30T08:52:29;99878.14;;;22.45
34023;BMP280;20673;48.980;8.138;2023-07-30T08:54:58;99885.47;;;22.54
34023;BMP280;20673;48.980;8.138;2023-07-30T08:57:29;99887.90;;;22.59
34023;BMP280;20673;48.980;8.138;2023-07-30T09:00:15;99881.32;;;22.69
34023;BMP280;20673;48.980;8.138;2023-07-30T09:02:54;99885.87;;;22.59
34023;BMP280;20673;48.980;8.138;2023-07-30T09:05:21;99888.65;;;22.70
34023;BMP280;20673;48.980;8.138;2023-07-30T09:07:49;99892.63;;;22.90
34023;BMP280;20673;48.980;8.138;2023-07-30T09:10:15;99904.59;;;23.01
34023;BMP280;20673;48.980;8.138;2023-07-30T09:12:42;99897.49;;;23.06
34023;BMP280;20673;48.980;8.138;2023-07-30T09:15:09;99898.80;;;22.91
34023;BMP280;20673;48.980;8.138;2023-07-30T09:17:36;99906.61;;;22.86
34023;BMP280;20673;48.980;8.138;2023-07-30T09:20:04;99912.95;;;22.92
34023;BMP280;20673;48.980;8.138;2023-07-30T09:22:33;99900.83;;;22.63
34023;BMP280;20673;48.980;8.138;2023-07-30T09:25:03;99911.36;;;22.48
34023;BMP280;20673;48.980;8.138;2023-07-30T09:27:31;99914.12;;;22.66
34023;BMP280;20673;48.980;8.138;2023-07-30T09:30:00;99914.73;;;22.58
34023;BMP280;20673;48.980;8.138;2023-07-30T09:32:33;99916.35;;;22.63
34023;BMP280;20673;48.980;8.138;2023-07-30T09:35:11;99916.35;;;22.63
34023;BMP280;20673;48.980;8.138;2023-07-30T09:37:43;99921.94;;;22.93
34023;BMP280;20673;48.980;8.138;2023-07-30T09:40:14;99923.78;;;22.82
34023;BMP280;20673;48.980;8.138;2023-07-30T09:42:46;99923.18;;;22.62
34023;BMP280;20673;48.980;8.138;2023-07-30T09:45:24;99929.11;;;22.41
34023;BMP280;20673;48.980;8.138;2023-07-30T09:47:53;99944.89;;;22.13
34023;BMP280;20673;48.980;8.138;2023-07-30T09:50:20;99947.89;;;22.09
34023;BMP280;20673;48.980;8.138;2023-07-30T09:52:46;99950.40;;;22.16
34023;BMP280;20673;48.980;8.138;2023-07-30T09:55:12;99943.86;;;22.01
34023;BMP280;20673;48.980;8.138;2023-07-30T09:57:39;99952.48;;;21.93
34023;BMP280;20673;48.980;8.138;2023-07-30T10:00:07;99957.08;;;21.81
34023;BMP280;20673;48.980;8.138;2023-07-30T10:02:39;99952.08;;;21.74
34023;BMP280;20673;48.980;8.138;2023-07-30T10:05:11;99962.43;;;21.74
34023;BMP280;20673;48.980;8.138;2023-07-30T10:07:59;99967.49;;;21.86
34023;BMP280;20673;48.980;8.138;2023-07-30T10:10:30;99967.68;;;22.09
34023;BMP280;20673;48.980;8.138;2023-07-30T10:13:03;99962.74;;;22.36
34023;BMP280;20673;48.980;8.138;2023-07-30T10:15:35;99976.03;;;23.27
34023;BMP280;20673;48.980;8.138;2023-07-30T10:18:03;99973.63;;;23.16
34023;BMP280;20673;48.980;8.138;2023-07-30T10:20:31;99952.79;;;22.90
34023;BMP280;20673;48.980;8.138;2023-07-30T10:22:59;99970.72;;;23.14
34023;BMP280;20673;48.980;8.138;2023-07-30T10:25:47;99995.18;;;23.78
34023;BMP280;20673;48.980;8.138;2023-07-30T10:28:37;99972.09;;;24.00
34023;BMP280;20673;48.980;8.138;2023-07-30T10:31:06;99976.29;;;24.26
34023;BMP280;20673;48.980;8.138;2023-07-30T10:36:33;99986.87;;;24.66
34023;BMP280;20673;48.980;8.138;2023-07-30T10:39:25;99986.25;;;24.88
34023;BMP280;20673;48.980;8.138;2023-07-30T10:41:54;99991.25;;;25.02
34023;BMP280;20673;48.980;8.138;2023-07-30T10:44:35;99987.53;;;25.00
34023;BMP280;20673;48.980;8.138;2023-07-30T10:47:03;99982.50;;;24.81
34023;BMP280;20673;48.980;8.138;2023-07-30T10:49:37;99986.31;;;24.52
34023;BMP280;20673;48.980;8.138;2023-07-30T10:52:04;99991.39;;;24.50
34023;BMP280;20673;48.980;8.138;2023-07-30T10:54:35;99998.42;;;24.39
34023;BMP280;20673;48.980;8.138;2023-07-30T10:57:02;99992.47;;;24.54
34023;BMP280;20673;48.980;8.138;2023-07-30T10:59:39;100003.37;;;24.48
34023;BMP280;20673;48.980;8.138;2023-07-30T11:02:08;99997.21;;;24.78
34023;BMP280;20673;48.980;8.138;2023-07-30T11:04:35;100013.20;;;24.44
34023;BMP280;20673;48.980;8.138;2023-07-30T11:07:01;100016.08;;;24.61
34023;BMP280;20673;48.980;8.138;2023-07-30T11:09:29;100003.90;;;24.46
34023;BMP280;20673;48.980;8.138;2023-07-30T11:11:56;100009.48;;;24.47
34023;BMP280;20673;48.980;8.138;2023-07-30T11:14:26;100003.12;;;24.12
34023;BMP280;20673;48.980;8.138;2023-07-30T11:16:57;100002.04;;;24.67
34023;BMP280;20673;48.980;8.138;2023-07-30T11:19:29;100014.40;;;24.88
34023;BMP280;20673;48.980;8.138;2023-07-30T11:21:58;100021.80;;;24.69
34023;BMP280;20673;48.980;8.138;2023-07-30T11:24:37;99992.72;;;25.41
34023;BMP280;20673;48.980;8.138;2023-07-30T11:27:06;99983.52;;;24.81
34023;BMP280;20673;48.980;8.138;2023-07-30T11:29:32;100005.83;;;24.59
34023;BMP280;20673;48.980;8.138;2023-07-30T11:31:59;99987.11;;;24.61
34023;BMP280;20673;48.980;8.138;2023-07-30T11:34:28;100000.43;;;24.59
34023;BMP280;20673;48.980;8.138;2023-07-30T11:36:56;99988.03;;;24.91
34023;BMP280;20673;48.980;8.138;2023-07-30T11:39:24;100001.54;;;25.33
34023;BMP280;20673;48.980;8.138;2023-07-30T11:41:50;99999.88;;;24.82
34023;BMP280;20673;48.980;8.138;2023-07-30T11:44:37;99999.58;;;24.39
34023;BMP280;20673;48.980;8.138;2023-07-30T11:47:07;100017.45;;;25.35
34023;BMP280;20673;48.980;8.138;2023-07-30T11:49:35;100001.42;;;25.34
34023;BMP280;20673;48.980;8.138;2023-07-30T11:52:09;99981.43;;;25.24
34023;BMP280;20673;48.980;8.138;2023-07-30T11:54:37;99999.29;;;24.80
34023;BMP280;20673;48.980;8.138;2023-07-30T11:57:11;100007.50;;;24.40
34023;BMP280;20673;48.980;8.138;2023-07-30T11:59:42;100038.50;;;24.52
34023;BMP280;20673;48.980;8.138;2023-07-30T12:02:17;100005.87;;;24.32
34023;BMP280;20673;48.980;8.138;2023-07-30T12:04:48;100006.40;;;24.45
34023;BMP280;20673;48.980;8.138;2023-07-30T12:07:26;100010.28;;;24.19
34023;BMP280;20673;48.980;8.138;2023-07-30T12:09:55;100005.03;;;24.28
34023;BMP280;20673;48.980;8.138;2023-07-30T12:12:26;100005.84;;;23.92
34023;BMP280;20673;48.980;8.138;2023-07-30T12:14:54;100012.03;;;24.25
34023;BMP280;20673;48.980;8.138;2023-07-30T12:17:22;100031.34;;;24.18
34023;BMP280;20673;48.980;8.138;2023-07-30T12:19:48;100023.15;;;24.43
34023;BMP280;20673;48.980;8.138;2023-07-30T12:22:14;100038.92;;;24.31
34023;BMP280;20673;48.980;8.138;2023-07-30T12:24:41;100029.47;;;24.39
34023;BMP280;20673;48.980;8.138;2023-07-30T12:27:08;100038.87;;;24.91
34023;BMP280;20673;48.980;8.138;2023-07-30T12:29:34;100050.42;;;25.27
34023;BMP280;20673;48.980;8.138;2023-07-30T12:32:01;100041.69;;;25.39
34023;BMP280;20673;48.980;8.138;2023-07-30T12:34:27;100035.62;;;25.00
34023;BMP280;20673;48.980;8.138;2023-07-30T12:36:53;100013.86;;;25.32
34023;BMP280;20673;48.980;8.138;2023-07-30T12:39:22;100022.78;;;25.65
34023;BMP280;20673;48.980;8.138;2023-07-30T12:41:48;100021.01;;;26.39
34023;BMP280;20673;48.980;8.138;2023-07-30T12:44:14;100035.50;;;25.61
34023;BMP280;20673;48.980;8.138;2023-07-30T12:46:41;100040.31;;;25.65
34023;BMP280;20673;48.980;8.138;2023-07-30T12:49:11;100040.79;;;25.43
34023;BMP280;20673;48.980;8.138;2023-07-30T12:51:39;100020.03;;;25.53
34023;BMP280;20673;48.980;8.138;2023-07-30T12:54:07;100024.03;;;25.02
34023;BMP280;20673;48.980;8.138;2023-07-30T12:56:36;100026.72;;;25.08
34023;BMP280;20673;48.980;8.138;2023-07-30T12:59:03;100017.62;;;24.50
34023;BMP280;20673;48.980;8.138;2023-07-30T13:01:29;100045.65;;;25.40
34023;BMP280;20673;48.980;8.138;2023-07-30T13:03:55;100039.26;;;25.28
34023;BMP280;20673;48.980;8.138;2023-07-30T13:06:21;100043.92;;;25.63
34023;BMP280;20673;48.980;8.138;2023-07-30T13:08:48;100038.04;;;26.02
34023;BMP280;20673;48.980;8.138;2023-07-30T13:11:14;100052.68;;;25.95
34023;BMP280;20673;48.980;8.138;2023-07-30T13:13:40;100058.09;;;26.14
34023;BMP280;20673;48.980;8.138;2023-07-30T13:16:06;100038.87;;;26.18
34023;BMP280;20673;48.980;8.138;2023-07-30T13:18:33;100042.47;;;25.94
34023;BMP280;20673;48.980;8.138;2023-07-30T13:20:59;100039.29;;;25.34
34023;BMP280;20673;48.980;8.138;2023-07-30T13:23:25;100046.50;;;24.66
34023;BMP280;20673;48.980;8.138;2023-07-30T13:25:51;100050.47;;;25.16
34023;BMP280;20673;48.980;8.138;2023-07-30T13:28:17;100038.39;;;25.30
34023;BMP280;20673;48.980;8.138;2023-07-30T13:30:43;100057.53;;;25.87
34023;BMP280;20673;48.980;8.138;2023-07-30T13:33:09;100048.76;;;26.33
34023;BMP280;20673;48.980;8.138;2023-07-30T13:35:36;100060.00;;;26.21
34023;BMP280;20673;48.980;8.138;2023-07-30T13:38:02;100054.45;;;26.58
34023;BMP280;20673;48.980;8.138;2023-07-30T13:40:28;100053.12;;;26.27
34023;BMP280;20673;48.980;8.138;2023-07-30T13:42:54;100038.87;;;25.60
34023;BMP280;20673;48.980;8.138;2023-07-30T13:45:20;100060.29;;;26.09
34023;BMP280;20673;48.980;8.138;2023-07-30T13:47:46;100064.05;;;26.17
34023;BMP280;20673;48.980;8.138;2023-07-30T13:50:13;100057.25;;;25.95
34023;BMP280;20673;48.980;8.138;2023-07-30T13:52:39;100044.43;;;26.44
34023;BMP280;20673;48.980;8.138;2023-07-30T13:55:06;100055.92;;;26.49
34023;BMP280;20673;48.980;8.138;2023-07-30T13:57:32;100069.32;;;26.55
34023;BMP280;20673;48.980;8.138;2023-07-30T14:00:00;100055.37;;;26.45
34023;BMP280;20673;48.980;8.138;2023-07-30T14:02:29;100085.95;;;26.46
34023;BMP280;20673;48.980;8.138;2023-07-30T14:04:56;100080.93;;;26.01
34023;BMP280;20673;48.980;8.138;2023-07-30T14:07:22;100067.36;;;26.22
34023;BMP280;20673;48.980;8.138;2023-07-30T14:09:48;100076.26;;;26.04
34023;BMP280;20673;48.980;8.138;2023-07-30T14:12:14;100063.34;;;26.22